sensor_id;sensor_type;location;lat;lon;timestamp;temperature;humidity
702;DHT22;334;48.808;9.222;2022-11-21T00:01:12;8.40;2.60
702;DHT22;334;48.808;9.222;2022-11-21T00:02:14;8.40;2.90
702;DHT22;334;48.808;9.222;2022-11-21T00:03:16;8.30;2.70
702;DHT22;334;48.808;9.222;2022-11-21T00:04:20;8.30;3.10
702;DHT22;334;48.808;9.222;2022-11-21T00:05:25;8.40;3.10
702;DHT22;334;48.808;9.222;2022-11-21T00:06:26;8.40;2.90
702;DHT22;334;48.808;9.222;2022-11-21T00:07:28;8.40;2.60
702;DHT22;334;48.808;9.222;2022-11-21T00:08:32;8.40;2.90
702;DHT22;334;48.808;9.222;2022-11-21T00:09:33;8.40;3.00
702;DHT22;334;48.808;9.222;2022-11-21T00:10:38;8.50;2.90
702;DHT22;334;48.808;9.222;2022-11-21T00:11:40;8.40;2.80
702;DHT22;334;48.808;9.222;2022-11-21T00:12:42;8.40;3.10
702;DHT22;334;48.808;9.222;2022-11-21T00:13:44;8.40;3.10
702;DHT22;334;48.808;9.222;2022-11-21T00:14:47;8.40;3.10
702;DHT22;334;48.808;9.222;2022-11-21T00:15:51;8.40;3.00
702;DHT22;334;48.808;9.222;2022-11-21T00:16:53;8.40;3.20
702;DHT22;334;48.808;9.222;2022-11-21T00:17:58;8.50;3.30
702;DHT22;334;48.808;9.222;2022-11-21T00:19:02;8.40;3.10
702;DHT22;334;48.808;9.222;2022-11-21T00:20:04;8.40;2.90
702;DHT22;334;48.808;9.222;2022-11-21T00:21:14;8.40;3.10
702;DHT22;334;48.808;9.222;2022-11-21T00:22:21;8.40;3.00
702;DHT22;334;48.808;9.222;2022-11-21T00:23:23;8.40;3.30
702;DHT22;334;48.808;9.222;2022-11-21T00:24:29;8.40;2.70
702;DHT22;334;48.808;9.222;2022-11-21T00:25:31;8.40;3.00
702;DHT22;334;48.808;9.222;2022-11-21T00:26:33;8.40;3.50
702;DHT22;334;48.808;9.222;2022-11-21T00:27:35;8.40;3.90
702;DHT22;334;48.808;9.222;2022-11-21T00:28:37;8.40;3.10
702;DHT22;334;48.808;9.222;2022-11-21T00:29:39;8.40;3.30
702;DHT22;334;48.808;9.222;2022-11-21T00:30:41;8.40;3.40
702;DHT22;334;48.808;9.222;2022-11-21T00:31:42;8.40;3.40
702;DHT22;334;48.808;9.222;2022-11-21T00:32:44;8.50;3.60
702;DHT22;334;48.808;9.222;2022-11-21T00:33:46;8.50;3.30
702;DHT22;334;48.808;9.222;2022-11-21T00:34:48;8.50;3.20
702;DHT22;334;48.808;9.222;2022-11-21T00:35:50;8.60;3.40
702;DHT22;334;48.808;9.222;2022-11-21T00:36:52;8.60;2.60
702;DHT22;334;48.808;9.222;2022-11-21T00:37:54;8.50;2.80
702;DHT22;334;48.808;9.222;2022-11-21T00:38:56;8.60;2.40
702;DHT22;334;48.808;9.222;2022-11-21T00:39:58;8.60;3.10
702;DHT22;334;48.808;9.222;2022-11-21T00:41:00;8.60;2.50
702;DHT22;334;48.808;9.222;2022-11-21T00:42:02;8.60;2.40
702;DHT22;334;48.808;9.222;2022-11-21T00:43:03;8.60;2.60
702;DHT22;334;48.808;9.222;2022-11-21T00:44:05;8.70;2.50
702;DHT22;334;48.808;9.222;2022-11-21T00:45:07;8.70;2.20
702;DHT22;334;48.808;9.222;2022-11-21T00:46:09;8.70;1.90
702;DHT22;334;48.808;9.222;2022-11-21T00:47:11;8.70;1.80
702;DHT22;334;48.808;9.222;2022-11-21T00:48:13;8.70;2.10
702;DHT22;334;48.808;9.222;2022-11-21T00:49:15;8.70;1.80
702;DHT22;334;48.808;9.222;2022-11-21T00:50:20;8.70;1.80
702;DHT22;334;48.808;9.222;2022-11-21T00:51:22;8.70;1.70
702;DHT22;334;48.808;9.222;2022-11-21T00:52:25;8.70;1.80
702;DHT22;334;48.808;9.222;2022-11-21T00:53:27;8.80;1.70
702;DHT22;334;48.808;9.222;2022-11-21T00:54:29;8.70;1.50
702;DHT22;334;48.808;9.222;2022-11-21T00:55:31;8.70;1.60
702;DHT22;334;48.808;9.222;2022-11-21T00:56:33;8.60;1.20
702;DHT22;334;48.808;9.222;2022-11-21T00:57:35;8.60;1.40
702;DHT22;334;48.808;9.222;2022-11-21T00:58:39;8.50;1.80
702;DHT22;334;48.808;9.222;2022-11-21T00:59:40;8.50;1.80
702;DHT22;334;48.808;9.222;2022-11-21T01:00:42;8.50;1.80
702;DHT22;334;48.808;9.222;2022-11-21T01:01:47;8.50;1.90
702;DHT22;334;48.808;9.222;2022-11-21T01:02:49;8.50;2.00
702;DHT22;334;48.808;9.222;2022-11-21T01:03:51;8.50;2.00
702;DHT22;334;48.808;9.222;2022-11-21T01:04:53;8.40;2.00
702;DHT22;334;48.808;9.222;2022-11-21T01:06:00;8.50;1.50
702;DHT22;334;48.808;9.222;2022-11-21T01:07:02;8.40;1.50
702;DHT22;334;48.808;9.222;2022-11-21T01:08:05;8.40;1.80
702;DHT22;334;48.808;9.222;2022-11-21T01:09:09;8.40;1.70
702;DHT22;334;48.808;9.222;2022-11-21T01:10:11;8.40;1.20
702;DHT22;334;48.808;9.222;2022-11-21T01:11:15;8.40;1.70
702;DHT22;334;48.808;9.222;2022-11-21T01:12:17;8.40;1.70
702;DHT22;334;48.808;9.222;2022-11-21T01:13:19;8.40;2.00
702;DHT22;334;48.808;9.222;2022-11-21T01:14:21;8.40;2.00
702;DHT22;334;48.808;9.222;2022-11-21T01:15:23;8.40;1.70
702;DHT22;334;48.808;9.222;2022-11-21T01:16:27;8.40;1.50
702;DHT22;334;48.808;9.222;2022-11-21T01:17:31;8.40;1.00
702;DHT22;334;48.808;9.222;2022-11-21T01:18:33;8.40;1.00
702;DHT22;334;48.808;9.222;2022-11-21T01:19:38;8.40;1.00
702;DHT22;334;48.808;9.222;2022-11-21T01:20:39;8.30;1.00
702;DHT22;334;48.808;9.222;2022-11-21T01:21:41;8.30;1.20
702;DHT22;334;48.808;9.222;2022-11-21T01:22:43;8.30;1.10
702;DHT22;334;48.808;9.222;2022-11-21T01:23:46;8.30;1.40
702;DHT22;334;48.808;9.222;2022-11-21T01:24:51;8.30;1.80
702;DHT22;334;48.808;9.222;2022-11-21T01:25:52;8.10;2.10
702;DHT22;334;48.808;9.222;2022-11-21T01:26:54;8.20;2.40
702;DHT22;334;48.808;9.222;2022-11-21T01:27:58;8.20;2.50
702;DHT22;334;48.808;9.222;2022-11-21T01:29:01;8.20;2.90
702;DHT22;334;48.808;9.222;2022-11-21T01:30:03;8.10;3.20
702;DHT22;334;48.808;9.222;2022-11-21T01:31:07;8.20;3.30
702;DHT22;334;48.808;9.222;2022-11-21T01:32:09;8.10;3.30
702;DHT22;334;48.808;9.222;2022-11-21T01:33:11;8.10;3.40
702;DHT22;334;48.808;9.222;2022-11-21T01:34:14;8.10;3.60
702;DHT22;334;48.808;9.222;2022-11-21T01:35:16;8.10;4.20
702;DHT22;334;48.808;9.222;2022-11-21T01:36:21;8.10;4.50
702;DHT22;334;48.808;9.222;2022-11-21T01:37:23;8.00;4.50
702;DHT22;334;48.808;9.222;2022-11-21T01:38:25;8.00;4.50
702;DHT22;334;48.808;9.222;2022-11-21T01:39:27;8.00;4.90
702;DHT22;334;48.808;9.222;2022-11-21T01:40:36;8.00;5.20
702;DHT22;334;48.808;9.222;2022-11-21T01:41:40;8.00;5.60
702;DHT22;334;48.808;9.222;2022-11-21T01:42:57;7.90;6.00
702;DHT22;334;48.808;9.222;2022-11-21T01:44:08;7.90;6.50
702;DHT22;334;48.808;9.222;2022-11-21T01:46:51;7.90;7.00
702;DHT22;334;48.808;9.222;2022-11-21T01:47:53;7.90;7.20
702;DHT22;334;48.808;9.222;2022-11-21T01:49:59;7.80;8.00
702;DHT22;334;48.808;9.222;2022-11-21T01:51:17;7.70;7.70
702;DHT22;334;48.808;9.222;2022-11-21T01:52:27;7.70;8.90
702;DHT22;334;48.808;9.222;2022-11-21T01:53:31;7.70;9.10
702;DHT22;334;48.808;9.222;2022-11-21T01:54:38;7.60;8.90
702;DHT22;334;48.808;9.222;2022-11-21T01:55:41;7.60;9.60
702;DHT22;334;48.808;9.222;2022-11-21T01:56:48;7.60;9.90
702;DHT22;334;48.808;9.222;2022-11-21T01:57:51;7.60;10.00
702;DHT22;334;48.808;9.222;2022-11-21T01:58:56;7.60;10.10
702;DHT22;334;48.808;9.222;2022-11-21T02:01:08;7.60;10.30
702;DHT22;334;48.808;9.222;2022-11-21T02:02:16;7.70;10.10
702;DHT22;334;48.808;9.222;2022-11-21T02:03:24;7.70;10.00
702;DHT22;334;48.808;9.222;2022-11-21T02:04:30;7.60;9.90
702;DHT22;334;48.808;9.222;2022-11-21T02:05:34;7.70;10.10
702;DHT22;334;48.808;9.222;2022-11-21T02:06:38;7.70;10.10
702;DHT22;334;48.808;9.222;2022-11-21T02:07:42;7.70;10.10
702;DHT22;334;48.808;9.222;2022-11-21T02:08:45;7.70;9.90
702;DHT22;334;48.808;9.222;2022-11-21T02:09:51;7.70;10.00
702;DHT22;334;48.808;9.222;2022-11-21T02:12:28;7.70;9.50
702;DHT22;334;48.808;9.222;2022-11-21T02:13:31;7.90;9.50
702;DHT22;334;48.808;9.222;2022-11-21T02:14:35;7.80;9.40
702;DHT22;334;48.808;9.222;2022-11-21T02:15:37;7.80;9.30
702;DHT22;334;48.808;9.222;2022-11-21T02:16:39;7.80;9.20
702;DHT22;334;48.808;9.222;2022-11-21T02:17:42;7.80;9.70
702;DHT22;334;48.808;9.222;2022-11-21T02:18:44;7.80;9.80
702;DHT22;334;48.808;9.222;2022-11-21T02:19:55;7.90;9.60
702;DHT22;334;48.808;9.222;2022-11-21T02:21:23;7.90;9.30
702;DHT22;334;48.808;9.222;2022-11-21T02:22:53;7.90;9.50
702;DHT22;334;48.808;9.222;2022-11-21T02:24:03;7.80;9.30
702;DHT22;334;48.808;9.222;2022-11-21T02:26:21;7.80;9.40
702;DHT22;334;48.808;9.222;2022-11-21T02:27:23;7.80;9.50
702;DHT22;334;48.808;9.222;2022-11-21T02:28:26;7.80;9.60
702;DHT22;334;48.808;9.222;2022-11-21T02:29:28;7.80;9.20
702;DHT22;334;48.808;9.222;2022-11-21T02:30:33;7.80;9.40
702;DHT22;334;48.808;9.222;2022-11-21T02:31:35;7.80;9.20
702;DHT22;334;48.808;9.222;2022-11-21T02:32:41;7.70;9.30
702;DHT22;334;48.808;9.222;2022-11-21T02:33:47;7.70;9.30
702;DHT22;334;48.808;9.222;2022-11-21T02:34:51;7.70;8.70
702;DHT22;334;48.808;9.222;2022-11-21T02:35:57;7.70;8.90
702;DHT22;334;48.808;9.222;2022-11-21T02:37:01;7.70;9.00
702;DHT22;334;48.808;9.222;2022-11-21T02:38:08;7.70;8.70
702;DHT22;334;48.808;9.222;2022-11-21T02:39:17;7.70;8.90
702;DHT22;334;48.808;9.222;2022-11-21T02:40:24;7.70;8.20
702;DHT22;334;48.808;9.222;2022-11-21T02:41:28;7.70;8.60
702;DHT22;334;48.808;9.222;2022-11-21T02:43:02;7.70;8.50
702;DHT22;334;48.808;9.222;2022-11-21T02:44:05;7.70;8.70
702;DHT22;334;48.808;9.222;2022-11-21T02:46:15;7.60;8.70
702;DHT22;334;48.808;9.222;2022-11-21T02:47:22;7.60;8.10
702;DHT22;334;48.808;9.222;2022-11-21T02:48:24;7.60;8.30
702;DHT22;334;48.808;9.222;2022-11-21T02:49:31;7.60;8.60
702;DHT22;334;48.808;9.222;2022-11-21T02:50:41;7.70;8.70
702;DHT22;334;48.808;9.222;2022-11-21T02:51:43;7.70;8.70
702;DHT22;334;48.808;9.222;2022-11-21T02:52:45;7.70;8.20
702;DHT22;334;48.808;9.222;2022-11-21T02:53:46;7.70;7.70
702;DHT22;334;48.808;9.222;2022-11-21T02:54:48;7.70;7.70
702;DHT22;334;48.808;9.222;2022-11-21T02:55:50;7.60;7.80
702;DHT22;334;48.808;9.222;2022-11-21T02:56:52;7.70;8.20
702;DHT22;334;48.808;9.222;2022-11-21T02:57:54;7.70;8.20
702;DHT22;334;48.808;9.222;2022-11-21T02:59:02;7.70;8.00
702;DHT22;334;48.808;9.222;2022-11-21T03:00:05;7.70;8.20
702;DHT22;334;48.808;9.222;2022-11-21T03:01:09;7.70;8.20
702;DHT22;334;48.808;9.222;2022-11-21T03:02:11;7.80;8.20
702;DHT22;334;48.808;9.222;2022-11-21T03:03:12;7.80;7.90
702;DHT22;334;48.808;9.222;2022-11-21T03:04:15;7.70;8.10
702;DHT22;334;48.808;9.222;2022-11-21T03:05:18;7.70;8.20
702;DHT22;334;48.808;9.222;2022-11-21T03:06:21;7.70;8.20
702;DHT22;334;48.808;9.222;2022-11-21T03:07:23;7.70;8.20
702;DHT22;334;48.808;9.222;2022-11-21T03:08:25;7.70;8.00
702;DHT22;334;48.808;9.222;2022-11-21T03:09:27;7.70;8.20
702;DHT22;334;48.808;9.222;2022-11-21T03:10:29;7.70;8.20
702;DHT22;334;48.808;9.222;2022-11-21T03:11:30;7.80;8.20
702;DHT22;334;48.808;9.222;2022-11-21T03:12:35;7.80;8.20
702;DHT22;334;48.808;9.222;2022-11-21T03:13:39;7.80;8.20
702;DHT22;334;48.808;9.222;2022-11-21T03:14:41;7.90;8.30
702;DHT22;334;48.808;9.222;2022-11-21T03:15:43;7.90;8.30
702;DHT22;334;48.808;9.222;2022-11-21T03:16:45;7.90;8.20
702;DHT22;334;48.808;9.222;2022-11-21T03:17:47;7.90;7.50
702;DHT22;334;48.808;9.222;2022-11-21T03:18:50;7.90;7.40
702;DHT22;334;48.808;9.222;2022-11-21T03:19:52;7.90;7.20
702;DHT22;334;48.808;9.222;2022-11-21T03:20:54;7.80;7.20
702;DHT22;334;48.808;9.222;2022-11-21T03:21:55;7.90;7.40
702;DHT22;334;48.808;9.222;2022-11-21T03:22:57;7.90;7.30
702;DHT22;334;48.808;9.222;2022-11-21T03:23:59;7.90;6.90
702;DHT22;334;48.808;9.222;2022-11-21T03:25:01;7.80;7.00
702;DHT22;334;48.808;9.222;2022-11-21T03:26:05;7.90;7.20
702;DHT22;334;48.808;9.222;2022-11-21T03:27:07;7.90;7.30
702;DHT22;334;48.808;9.222;2022-11-21T03:28:09;7.90;7.00
702;DHT22;334;48.808;9.222;2022-11-21T03:29:11;7.90;7.00
702;DHT22;334;48.808;9.222;2022-11-21T03:30:12;7.90;6.60
702;DHT22;334;48.808;9.222;2022-11-21T03:31:14;7.90;6.90
702;DHT22;334;48.808;9.222;2022-11-21T03:32:16;7.90;7.00
702;DHT22;334;48.808;9.222;2022-11-21T03:33:20;8.00;7.10
702;DHT22;334;48.808;9.222;2022-11-21T03:34:22;8.00;7.20
702;DHT22;334;48.808;9.222;2022-11-21T03:35:26;8.00;6.90
702;DHT22;334;48.808;9.222;2022-11-21T03:36:28;8.00;6.40
702;DHT22;334;48.808;9.222;2022-11-21T03:37:31;8.10;6.60
702;DHT22;334;48.808;9.222;2022-11-21T03:38:33;8.10;6.40
702;DHT22;334;48.808;9.222;2022-11-21T03:39:34;8.10;6.70
702;DHT22;334;48.808;9.222;2022-11-21T03:40:38;8.10;6.60
702;DHT22;334;48.808;9.222;2022-11-21T03:41:39;8.20;6.30
702;DHT22;334;48.808;9.222;2022-11-21T03:42:41;8.20;6.50
702;DHT22;334;48.808;9.222;2022-11-21T03:43:43;8.20;5.50
702;DHT22;334;48.808;9.222;2022-11-21T03:44:45;8.20;5.90
702;DHT22;334;48.808;9.222;2022-11-21T03:45:47;8.20;6.10
702;DHT22;334;48.808;9.222;2022-11-21T03:46:51;8.20;5.10
702;DHT22;334;48.808;9.222;2022-11-21T03:47:57;8.20;5.40
702;DHT22;334;48.808;9.222;2022-11-21T03:49:01;8.20;5.50
702;DHT22;334;48.808;9.222;2022-11-21T03:50:05;8.20;5.90
702;DHT22;334;48.808;9.222;2022-11-21T03:51:08;8.20;6.10
702;DHT22;334;48.808;9.222;2022-11-21T03:52:12;8.30;6.00
702;DHT22;334;48.808;9.222;2022-11-21T03:53:14;8.30;6.00
702;DHT22;334;48.808;9.222;2022-11-21T03:54:16;8.30;5.70
702;DHT22;334;48.808;9.222;2022-11-21T03:55:18;8.30;5.50
702;DHT22;334;48.808;9.222;2022-11-21T03:56:23;8.30;5.70
702;DHT22;334;48.808;9.222;2022-11-21T03:57:26;8.30;5.60
702;DHT22;334;48.808;9.222;2022-11-21T03:58:28;8.30;5.70
702;DHT22;334;48.808;9.222;2022-11-21T03:59:30;8.30;5.90
702;DHT22;334;48.808;9.222;2022-11-21T04:00:31;8.30;5.50
702;DHT22;334;48.808;9.222;2022-11-21T04:01:33;8.30;5.70
702;DHT22;334;48.808;9.222;2022-11-21T04:02:37;8.30;5.80
702;DHT22;334;48.808;9.222;2022-11-21T04:03:43;8.30;5.50
702;DHT22;334;48.808;9.222;2022-11-21T04:04:45;8.20;5.90
702;DHT22;334;48.808;9.222;2022-11-21T04:05:47;8.20;6.10
702;DHT22;334;48.808;9.222;2022-11-21T04:06:51;8.20;5.50
702;DHT22;334;48.808;9.222;2022-11-21T04:07:53;8.20;6.00
702;DHT22;334;48.808;9.222;2022-11-21T04:08:54;8.20;6.10
702;DHT22;334;48.808;9.222;2022-11-21T04:09:56;8.20;6.20
702;DHT22;334;48.808;9.222;2022-11-21T04:11:00;8.20;6.10
702;DHT22;334;48.808;9.222;2022-11-21T04:12:03;8.20;6.20
702;DHT22;334;48.808;9.222;2022-11-21T04:13:08;8.30;6.30
702;DHT22;334;48.808;9.222;2022-11-21T04:14:10;8.30;6.40
702;DHT22;334;48.808;9.222;2022-11-21T04:15:12;8.30;6.40
702;DHT22;334;48.808;9.222;2022-11-21T04:16:14;8.30;6.00
702;DHT22;334;48.808;9.222;2022-11-21T04:17:16;8.30;6.40
702;DHT22;334;48.808;9.222;2022-11-21T04:18:18;8.30;6.30
702;DHT22;334;48.808;9.222;2022-11-21T04:19:20;8.30;6.00
702;DHT22;334;48.808;9.222;2022-11-21T04:20:24;8.30;6.00
702;DHT22;334;48.808;9.222;2022-11-21T04:21:26;8.30;6.30
702;DHT22;334;48.808;9.222;2022-11-21T04:22:28;8.30;6.70
702;DHT22;334;48.808;9.222;2022-11-21T04:23:39;8.30;6.60
702;DHT22;334;48.808;9.222;2022-11-21T04:24:41;8.30;6.70
702;DHT22;334;48.808;9.222;2022-11-21T04:25:42;8.30;6.60
702;DHT22;334;48.808;9.222;2022-11-21T04:26:44;8.30;6.20
702;DHT22;334;48.808;9.222;2022-11-21T04:27:46;8.30;6.60
702;DHT22;334;48.808;9.222;2022-11-21T04:28:48;8.30;6.70
702;DHT22;334;48.808;9.222;2022-11-21T04:29:50;8.30;6.60
702;DHT22;334;48.808;9.222;2022-11-21T04:30:51;8.30;6.50
702;DHT22;334;48.808;9.222;2022-11-21T04:31:55;8.30;6.60
702;DHT22;334;48.808;9.222;2022-11-21T04:32:57;8.30;6.80
702;DHT22;334;48.808;9.222;2022-11-21T04:33:59;8.30;6.40
702;DHT22;334;48.808;9.222;2022-11-21T04:35:01;8.30;6.70
702;DHT22;334;48.808;9.222;2022-11-21T04:36:03;8.30;7.00
702;DHT22;334;48.808;9.222;2022-11-21T04:37:05;8.30;6.80
702;DHT22;334;48.808;9.222;2022-11-21T04:38:13;8.30;7.00
702;DHT22;334;48.808;9.222;2022-11-21T04:39:15;8.30;7.00
702;DHT22;334;48.808;9.222;2022-11-21T04:40:16;8.30;7.20
702;DHT22;334;48.808;9.222;2022-11-21T04:41:18;8.30;7.50
702;DHT22;334;48.808;9.222;2022-11-21T04:42:22;8.30;7.50
702;DHT22;334;48.808;9.222;2022-11-21T04:43:24;8.30;7.30
702;DHT22;334;48.808;9.222;2022-11-21T04:44:26;8.20;7.50
702;DHT22;334;48.808;9.222;2022-11-21T04:45:29;8.20;7.30
702;DHT22;334;48.808;9.222;2022-11-21T04:46:31;8.20;7.30
702;DHT22;334;48.808;9.222;2022-11-21T04:47:41;8.20;7.40
702;DHT22;334;48.808;9.222;2022-11-21T04:48:45;8.20;7.70
702;DHT22;334;48.808;9.222;2022-11-21T04:49:47;8.20;7.80
702;DHT22;334;48.808;9.222;2022-11-21T04:50:49;8.10;8.00
702;DHT22;334;48.808;9.222;2022-11-21T04:51:51;8.10;8.00
702;DHT22;334;48.808;9.222;2022-11-21T04:52:54;8.10;8.10
702;DHT22;334;48.808;9.222;2022-11-21T04:53:56;8.20;7.70
702;DHT22;334;48.808;9.222;2022-11-21T04:54:58;8.10;7.90
702;DHT22;334;48.808;9.222;2022-11-21T04:56:05;8.20;8.00
702;DHT22;334;48.808;9.222;2022-11-21T04:57:07;8.20;7.80
702;DHT22;334;48.808;9.222;2022-11-21T04:58:10;8.20;7.80
702;DHT22;334;48.808;9.222;2022-11-21T04:59:12;8.10;8.00
702;DHT22;334;48.808;9.222;2022-11-21T05:00:16;8.10;8.10
702;DHT22;334;48.808;9.222;2022-11-21T05:01:24;8.20;8.20
702;DHT22;334;48.808;9.222;2022-11-21T05:02:28;8.10;7.90
702;DHT22;334;48.808;9.222;2022-11-21T05:03:29;8.10;8.20
702;DHT22;334;48.808;9.222;2022-11-21T05:04:31;8.10;8.20
702;DHT22;334;48.808;9.222;2022-11-21T05:05:33;8.10;8.40
702;DHT22;334;48.808;9.222;2022-11-21T05:06:35;8.10;8.40
702;DHT22;334;48.808;9.222;2022-11-21T05:07:37;8.20;8.50
702;DHT22;334;48.808;9.222;2022-11-21T05:08:39;8.20;8.50
702;DHT22;334;48.808;9.222;2022-11-21T05:09:41;8.20;8.50
702;DHT22;334;48.808;9.222;2022-11-21T05:10:43;8.20;8.50
702;DHT22;334;48.808;9.222;2022-11-21T05:12:04;8.20;8.50
702;DHT22;334;48.808;9.222;2022-11-21T05:13:25;8.20;8.30
702;DHT22;334;48.808;9.222;2022-11-21T05:14:27;8.20;8.50
702;DHT22;334;48.808;9.222;2022-11-21T05:15:29;8.30;8.50
702;DHT22;334;48.808;9.222;2022-11-21T05:16:33;8.30;8.50
702;DHT22;334;48.808;9.222;2022-11-21T05:17:35;8.30;8.50
702;DHT22;334;48.808;9.222;2022-11-21T05:18:37;8.30;8.50
702;DHT22;334;48.808;9.222;2022-11-21T05:19:39;8.30;8.20
702;DHT22;334;48.808;9.222;2022-11-21T05:20:43;8.30;8.00
702;DHT22;334;48.808;9.222;2022-11-21T05:21:45;8.30;8.00
702;DHT22;334;48.808;9.222;2022-11-21T05:22:50;8.30;8.00
702;DHT22;334;48.808;9.222;2022-11-21T05:23:52;8.40;7.80
702;DHT22;334;48.808;9.222;2022-11-21T05:24:54;8.40;8.20
702;DHT22;334;48.808;9.222;2022-11-21T05:25:56;8.40;7.90
702;DHT22;334;48.808;9.222;2022-11-21T05:26:58;8.40;7.90
702;DHT22;334;48.808;9.222;2022-11-21T05:28:00;8.40;8.00
702;DHT22;334;48.808;9.222;2022-11-21T05:29:02;8.40;8.10
702;DHT22;334;48.808;9.222;2022-11-21T05:30:04;8.40;8.00
702;DHT22;334;48.808;9.222;2022-11-21T05:31:08;8.40;8.00
702;DHT22;334;48.808;9.222;2022-11-21T05:32:11;8.40;7.70
702;DHT22;334;48.808;9.222;2022-11-21T05:33:12;8.50;8.00
702;DHT22;334;48.808;9.222;2022-11-21T05:34:14;8.50;8.00
702;DHT22;334;48.808;9.222;2022-11-21T05:35:16;8.50;8.20
702;DHT22;334;48.808;9.222;2022-11-21T05:36:18;8.50;7.80
702;DHT22;334;48.808;9.222;2022-11-21T05:37:20;8.60;7.90
702;DHT22;334;48.808;9.222;2022-11-21T05:38:22;8.60;7.80
702;DHT22;334;48.808;9.222;2022-11-21T05:39:24;8.60;7.60
702;DHT22;334;48.808;9.222;2022-11-21T05:40:26;8.60;7.60
702;DHT22;334;48.808;9.222;2022-11-21T05:41:29;8.70;7.40
702;DHT22;334;48.808;9.222;2022-11-21T05:42:31;8.70;7.10
702;DHT22;334;48.808;9.222;2022-11-21T05:43:51;8.70;6.90
702;DHT22;334;48.808;9.222;2022-11-21T05:44:53;8.70;6.70
702;DHT22;334;48.808;9.222;2022-11-21T05:45:55;8.80;7.10
702;DHT22;334;48.808;9.222;2022-11-21T05:46:57;8.80;6.90
702;DHT22;334;48.808;9.222;2022-11-21T05:47:58;8.80;6.80
702;DHT22;334;48.808;9.222;2022-11-21T05:49:00;8.80;6.80
702;DHT22;334;48.808;9.222;2022-11-21T05:50:03;8.90;6.60
702;DHT22;334;48.808;9.222;2022-11-21T05:51:05;8.90;6.30
702;DHT22;334;48.808;9.222;2022-11-21T05:52:07;8.90;6.60
702;DHT22;334;48.808;9.222;2022-11-21T05:53:09;8.90;6.10
702;DHT22;334;48.808;9.222;2022-11-21T05:54:12;8.90;6.00
702;DHT22;334;48.808;9.222;2022-11-21T05:55:15;8.90;6.20
702;DHT22;334;48.808;9.222;2022-11-21T05:56:18;8.90;6.00
702;DHT22;334;48.808;9.222;2022-11-21T05:57:20;8.90;6.20
702;DHT22;334;48.808;9.222;2022-11-21T05:58:24;8.90;6.00
702;DHT22;334;48.808;9.222;2022-11-21T05:59:26;8.90;5.50
702;DHT22;334;48.808;9.222;2022-11-21T06:00:27;8.80;5.90
702;DHT22;334;48.808;9.222;2022-11-21T06:01:29;8.80;6.00
702;DHT22;334;48.808;9.222;2022-11-21T06:02:50;8.80;6.40
702;DHT22;334;48.808;9.222;2022-11-21T06:04:11;8.80;6.40
702;DHT22;334;48.808;9.222;2022-11-21T06:05:13;8.80;6.10
702;DHT22;334;48.808;9.222;2022-11-21T06:06:15;8.90;6.20
702;DHT22;334;48.808;9.222;2022-11-21T06:07:24;8.80;6.10
702;DHT22;334;48.808;9.222;2022-11-21T06:08:27;8.90;6.10
702;DHT22;334;48.808;9.222;2022-11-21T06:09:29;8.90;6.00
702;DHT22;334;48.808;9.222;2022-11-21T06:10:30;8.90;6.00
702;DHT22;334;48.808;9.222;2022-11-21T06:11:32;8.90;5.80
702;DHT22;334;48.808;9.222;2022-11-21T06:12:35;8.90;5.70
702;DHT22;334;48.808;9.222;2022-11-21T06:13:37;8.90;5.90
702;DHT22;334;48.808;9.222;2022-11-21T06:14:41;8.90;6.00
702;DHT22;334;48.808;9.222;2022-11-21T06:15:43;8.90;6.10
702;DHT22;334;48.808;9.222;2022-11-21T06:16:45;8.90;6.00
702;DHT22;334;48.808;9.222;2022-11-21T06:17:47;8.90;5.90
702;DHT22;334;48.808;9.222;2022-11-21T06:18:51;8.90;5.90
702;DHT22;334;48.808;9.222;2022-11-21T06:19:59;8.90;5.70
702;DHT22;334;48.808;9.222;2022-11-21T06:21:06;8.90;6.00
702;DHT22;334;48.808;9.222;2022-11-21T06:22:15;8.90;5.70
702;DHT22;334;48.808;9.222;2022-11-21T06:23:18;8.90;6.00
702;DHT22;334;48.808;9.222;2022-11-21T06:24:19;8.80;5.90
702;DHT22;334;48.808;9.222;2022-11-21T06:25:23;8.80;5.90
702;DHT22;334;48.808;9.222;2022-11-21T06:26:26;8.80;6.00
702;DHT22;334;48.808;9.222;2022-11-21T06:27:28;8.80;5.90
702;DHT22;334;48.808;9.222;2022-11-21T06:28:32;8.80;5.90
702;DHT22;334;48.808;9.222;2022-11-21T06:29:34;8.80;6.10
702;DHT22;334;48.808;9.222;2022-11-21T06:30:37;8.80;6.90
702;DHT22;334;48.808;9.222;2022-11-21T06:31:38;8.80;6.30
702;DHT22;334;48.808;9.222;2022-11-21T06:32:40;8.80;6.00
702;DHT22;334;48.808;9.222;2022-11-21T06:33:43;8.80;6.10
702;DHT22;334;48.808;9.222;2022-11-21T06:34:46;8.80;6.10
702;DHT22;334;48.808;9.222;2022-11-21T06:35:48;8.80;6.20
702;DHT22;334;48.808;9.222;2022-11-21T06:36:51;8.80;5.50
702;DHT22;334;48.808;9.222;2022-11-21T06:37:55;8.80;5.40
702;DHT22;334;48.808;9.222;2022-11-21T06:38:57;8.80;5.60
702;DHT22;334;48.808;9.222;2022-11-21T06:39:59;8.80;5.50
702;DHT22;334;48.808;9.222;2022-11-21T06:41:15;8.80;5.70
702;DHT22;334;48.808;9.222;2022-11-21T06:42:17;8.80;5.50
702;DHT22;334;48.808;9.222;2022-11-21T06:43:19;8.80;5.60
702;DHT22;334;48.808;9.222;2022-11-21T06:44:21;8.80;5.60
702;DHT22;334;48.808;9.222;2022-11-21T06:45:23;8.80;5.30
702;DHT22;334;48.808;9.222;2022-11-21T06:46:25;8.80;5.30
702;DHT22;334;48.808;9.222;2022-11-21T06:47:26;8.80;5.60
702;DHT22;334;48.808;9.222;2022-11-21T06:48:32;8.80;5.70
702;DHT22;334;48.808;9.222;2022-11-21T06:49:35;8.80;5.60
702;DHT22;334;48.808;9.222;2022-11-21T06:50:38;8.80;5.70
702;DHT22;334;48.808;9.222;2022-11-21T06:51:40;8.80;5.90
702;DHT22;334;48.808;9.222;2022-11-21T06:52:43;8.80;5.90
702;DHT22;334;48.808;9.222;2022-11-21T06:53:46;8.90;5.90
702;DHT22;334;48.808;9.222;2022-11-21T06:54:48;8.90;6.00
702;DHT22;334;48.808;9.222;2022-11-21T06:55:51;8.90;6.20
702;DHT22;334;48.808;9.222;2022-11-21T06:56:55;8.90;5.80
702;DHT22;334;48.808;9.222;2022-11-21T06:57:59;8.90;5.90
702;DHT22;334;48.808;9.222;2022-11-21T06:59:01;8.90;5.60
702;DHT22;334;48.808;9.222;2022-11-21T07:00:04;8.90;5.60
702;DHT22;334;48.808;9.222;2022-11-21T07:01:08;8.90;5.50
702;DHT22;334;48.808;9.222;2022-11-21T07:02:12;8.90;5.40
702;DHT22;334;48.808;9.222;2022-11-21T07:03:14;8.90;5.50
702;DHT22;334;48.808;9.222;2022-11-21T07:04:16;8.90;5.50
702;DHT22;334;48.808;9.222;2022-11-21T07:05:18;8.90;5.70
702;DHT22;334;48.808;9.222;2022-11-21T07:06:20;8.90;5.80
702;DHT22;334;48.808;9.222;2022-11-21T07:07:22;8.90;6.00
702;DHT22;334;48.808;9.222;2022-11-21T07:08:24;8.90;6.00
702;DHT22;334;48.808;9.222;2022-11-21T07:09:27;8.90;5.70
702;DHT22;334;48.808;9.222;2022-11-21T07:10:35;8.90;5.70
702;DHT22;334;48.808;9.222;2022-11-21T07:11:36;8.90;5.60
702;DHT22;334;48.808;9.222;2022-11-21T07:12:38;8.90;5.70
702;DHT22;334;48.808;9.222;2022-11-21T07:13:59;8.90;6.00
702;DHT22;334;48.808;9.222;2022-11-21T07:15:07;8.90;5.90
702;DHT22;334;48.808;9.222;2022-11-21T07:16:14;8.90;6.10
702;DHT22;334;48.808;9.222;2022-11-21T07:17:18;8.80;5.90
702;DHT22;334;48.808;9.222;2022-11-21T07:18:21;8.90;5.90
702;DHT22;334;48.808;9.222;2022-11-21T07:19:24;8.90;5.90
702;DHT22;334;48.808;9.222;2022-11-21T07:20:32;8.90;6.50
702;DHT22;334;48.808;9.222;2022-11-21T07:21:34;8.90;5.70
702;DHT22;334;48.808;9.222;2022-11-21T07:22:36;8.90;5.70
702;DHT22;334;48.808;9.222;2022-11-21T07:23:38;8.90;5.40
702;DHT22;334;48.808;9.222;2022-11-21T07:24:41;8.90;5.30
702;DHT22;334;48.808;9.222;2022-11-21T07:25:43;8.90;5.40
702;DHT22;334;48.808;9.222;2022-11-21T07:26:45;8.90;5.80
702;DHT22;334;48.808;9.222;2022-11-21T07:27:47;8.90;5.60
702;DHT22;334;48.808;9.222;2022-11-21T07:28:49;8.90;5.50
702;DHT22;334;48.808;9.222;2022-11-21T07:29:52;8.90;5.80
702;DHT22;334;48.808;9.222;2022-11-21T07:31:00;9.00;5.70
702;DHT22;334;48.808;9.222;2022-11-21T07:32:03;9.00;5.60